Nearby METAR Reports

 

KTEB - Teterboro, New Jersey, USA
Distance from station: ENE 2mi, 4km
Updated: 05/27/2018 4:51am
Clear
Clear
 Wind from E
Wind: E 13 mph , 20 km/h
Temperature: 72°F , 22°C
Dew Point: 61°F , 16°C
Humidity: 69%
Barometer: 29.89 inHg , 1012.2 hPa
Clouds: Clear
Visibility: 10 miles , 16 km
2018/05/27 08:51 KTEB 270851Z 08011KT 10SM CLR 22/16 A2989 RMK AO2 SLP122 T02170156 51015
KNYC - Nyc/Central Park, New York, USA
Distance from station: SE 8mi, 13km
Updated: 05/27/2018 4:51am
Overcast
Overcast
 Wind from E
Wind: E 8 mph , 13 km/h, Gust: 17 mph , 28 km/h
Temperature: 72°F , 22°C
Dew Point: 61°F , 16°C
Humidity: 69%
Barometer: 29.94 inHg , 1013.9 hPa
Clouds: Overcast
Visibility: 10 miles , 16 km
Cloud details: Overcast 11000 ft
2018/05/27 08:51 KNYC 270851Z AUTO 09007G15KT 050V140 10SM OVC110 22/16 A2994 RMK AO2 SLP129 T02170161 51019 $
 
KCDW - Caldwell, New Jersey, USA
Distance from station: WNW 10mi, 17km
Updated: 05/27/2018 4:53am

 
2018/05/27 08:53 KCDW 270853Z AUTO RMK AO2 LTG DSNT S AND SW SLPNO PWINO $
KLGA - Nyc/La Guardia, New York, USA
Distance from station: ESE 12mi, 19km
Updated: 05/27/2018 4:51am
Overcast
Overcast
 Wind from ENE
Wind: ENE 10 mph , 17 km/h
Temperature: 72°F , 22°C
Dew Point: 61°F , 16°C
Humidity: 69%
Barometer: 29.91 inHg , 1012.9 hPa
Clouds: Overcast
Visibility: 10 miles , 16 km
Cloud details: Partly cloudy 3000 ft
Mostly cloudy 11000 ft
Overcast 15000 ft
2018/05/27 08:51 KLGA 270851Z 07009KT 10SM SCT030 BKN110 OVC150 22/16 A2991 RMK AO2 SLP129 T02170156 51021 $
 
KEWR - Newark, New Jersey, USA
Distance from station: SSW 12mi, 20km
Updated: 05/27/2018 5:04am
Thunderstorm rain, Mist, Overcast
Thunderstorm rain, Mist, Overcast
 Wind from E
Wind: E 5 mph , 7 km/h
Temperature: 70°F , 21°C
Dew Point: 66°F , 19°C
Humidity: 88%
Barometer: 29.91 inHg , 1012.9 hPa
Summary: Thunderstorm rain, Mist
Clouds: Overcast
Visibility: 6 miles , 10 km
Cloud details: Mostly cloudy 1400 ft
Mostly cloudy 2200 ft
Overcast 4000 ft
2018/05/27 09:04 KEWR 270904Z 08004KT 6SM TSRA BR BKN014 BKN022CB OVC040 21/19 A2991 RMK AO2 LTG DSNT SW AND W OCNL LTGIC OHD TS OHD MOV NE P0001 T02110189 $
KMMU - Morristown Muni, New Jersey, USA
Distance from station: WSW 18mi, 29km
Updated: 05/27/2018 4:55am

 Wind from ENE
Wind: ENE 8 mph , 13 km/h, Gust: 16 mph , 26 km/h
Visibility: 10 miles , 16 km
2018/05/27 08:55 KMMU 270855Z AUTO 07007G14KT 10SM -VCTSRA SCT021 OVC031 21/17 A2992 RMK AO2 LTG DSNT SE THRU SW
 
KJFK - Nyc/Jfk Arpt, New York, USA
Distance from station: SE 23mi, 36km
Updated: 05/27/2018 4:51am
Mostly cloudy
Mostly cloudy
 Wind from E
Wind: E 10 mph , 17 km/h
Temperature: 68°F , 20°C
Dew Point: 63°F , 17°C
Humidity: 83%
Barometer: 29.92 inHg , 1013.2 hPa
Clouds: Mostly cloudy
Visibility: 10 miles , 16 km
Cloud details: Partly cloudy 3200 ft
Partly cloudy 12000 ft
Mostly cloudy 15000 ft
Mostly cloudy 20000 ft
2018/05/27 08:51 KJFK 270851Z 08009KT 10SM SCT032 SCT120 BKN150 BKN200 20/17 A2992 RMK AO2 SLP132 T02000167 52019
KHPN - White Plains, New York, USA
Distance from station: NE 25mi, 40km
Updated: 05/27/2018 4:56am
Light rain, Partly cloudy
Light rain, Partly cloudy
 Wind from E
Wind: E 8 mph , 13 km/h
Temperature: 66°F , 19°C
Dew Point: 63°F , 17°C
Humidity: 88%
Barometer: 29.93 inHg , 1013.5 hPa
Summary: Light rain
Clouds: Partly cloudy
Visibility: 10 miles , 16 km
Cloud details: Partly cloudy 10000 ft
2018/05/27 08:56 KHPN 270856Z 09007KT 10SM -RA SCT100 19/17 A2993 RMK AO2 SLP128 P0000 60000 T01890167 51015
 
KSMQ - Somerville, New Jersey, USA
Distance from station: WSW 34mi, 55km
Updated: 05/27/2018 5:10am
Nearby thunderstorm, Rain, Mist, Overcast
Nearby thunderstorm, Rain, Mist, Overcast
 Wind from N
Wind: N 3 mph , 6 km/h
Temperature: 70°F , 21°C
Dew Point: 70°F , 21°C
Humidity: 100%
Barometer: 29.88 inHg , 1011.9 hPa
Summary: Nearby thunderstorm, Rain, Mist
Clouds: Overcast
Visibility: 2 1/2 miles , 4 km
Cloud details: Partly cloudy 1200 ft
Mostly cloudy 1900 ft
Overcast 4600 ft
2018/05/27 09:10 KSMQ 270910Z AUTO 01003KT 2 1/2SM VCTS RA BR SCT012 BKN019 OVC046 21/21 A2988 RMK AO2 LTG DSNT ALQDS TSE01 P0010 T02060206
K12N - Andover, New Jersey, USA
Distance from station: WNW 36mi, 57km
Updated: 05/27/2018 4:54am

 Wind from ENE
Wind: ENE 3 mph , 6 km/h
Temperature: 66°F , 19°C
Dew Point: 64°F , 18°C
Humidity: 94%
Barometer: 29.91 inHg , 1012.9 hPa
2018/05/27 08:54 K12N 270854Z AUTO 06003KT 19/18 A2991 RMK AO1 SLP119 60008 T01940183 51010
 
KFRG - Farmingdale, New York, USA
Distance from station: ESE 36mi, 58km
Updated: 05/27/2018 4:53am
Clear
Clear
 Wind from ENE
Wind: ENE 9 mph , 15 km/h
Temperature: 66°F , 19°C
Dew Point: 59°F , 15°C
Humidity: 78%
Barometer: 29.92 inHg , 1013.2 hPa
Clouds: Clear
Visibility: 10 miles , 16 km
2018/05/27 08:53 KFRG 270853Z AUTO 07008KT 10SM CLR 19/15 A2992 RMK AO2 SLP131 T01940150 50017
KFWN - Sussex, New Jersey, USA
Distance from station: NW 37mi, 60km
Updated: 05/27/2018 4:53am
Light rain, Overcast
Light rain, Overcast
 Wind from NNE
Wind: NNE 8 mph , 13 km/h
Temperature: 70°F , 21°C
Dew Point: 63°F , 17°C
Humidity: 78%
Barometer: 29.91 inHg , 1012.9 hPa
Summary: Light rain
Clouds: Overcast
Visibility: 10 miles , 16 km
Cloud details: Mostly cloudy 7000 ft
Overcast 8500 ft
2018/05/27 08:53 KFWN 270853Z AUTO 03007KT 10SM -RA BKN070 OVC085 21/17 A2991 RMK AO2 RAE03B48 SLP125 P0000 60000 T02060172 50008
 
KSWF - Newburgh/Stewart, New York, USA
Distance from station: 0 45mi, 72km
Updated: 05/27/2018 4:45am
Mostly cloudy
Mostly cloudy
 Wind from E
Wind: E 12 mph , 19 km/h
Temperature: 70°F , 21°C
Dew Point: 63°F , 17°C
Humidity: 78%
Barometer: 29.94 inHg , 1013.9 hPa
Clouds: Mostly cloudy
Visibility: 10 miles , 16 km
Cloud details: Mostly cloudy 8000 ft
2018/05/27 08:45 KSWF 270845Z 09010KT 10SM BKN080 21/17 A2994
KMGJ - Montgomery, New York, USA
Distance from station: NNW 47mi, 75km
Updated: 05/27/2018 4:54am
Few Clouds
Few Clouds
 Wind from NNE
Wind: NNE 8 mph , 13 km/h
Temperature: 68°F , 20°C
Dew Point: 63°F , 17°C
Humidity: 83%
Barometer: 29.93 inHg , 1013.5 hPa
Clouds: Few Clouds
Visibility: 10 miles , 16 km
Cloud details: Few Clouds 10000 ft
2018/05/27 08:54 KMGJ 270854Z AUTO 03007KT 10SM FEW100 20/17 A2993 RMK AO2 RAB04E14 SLP132 P0000 60000 T02000167 51013
 
KBLM - Belmar/Farmdale, New Jersey, USA
Distance from station: S 47mi, 76km
Updated: 05/27/2018 5:11am
Heavy thunderstorm, Rain, Mist, Overcast
Heavy thunderstorm, Rain, Mist, Overcast
 Wind from SSE
Wind: SSE 13 mph , 20 km/h
Temperature: 66°F , 19°C
Dew Point: 66°F , 19°C
Humidity: 100%
Barometer: 29.92 inHg , 1013.2 hPa
Summary: Heavy thunderstorm, Rain, Mist
Clouds: Overcast
Visibility: 5 miles , 8 km
Cloud details: Few Clouds 2200 ft
Overcast 3500 ft
2018/05/27 09:11 KBLM 270911Z AUTO 15011KT 5SM +TSRA BR FEW022 OVC035 19/19 A2992 RMK AO2 LTG DSNT ALQDS TSB05 PRESRR P0016
KDXR - Danbury, Connecticut, USA
Distance from station: NE 47mi, 76km
Updated: 05/27/2018 4:53am
Few Clouds
Few Clouds
 Wind from ENE
Wind: ENE 10 mph , 17 km/h
Temperature: 66°F , 19°C
Dew Point: 61°F , 16°C
Humidity: 83%
Barometer: 29.96 inHg , 1014.6 hPa
Clouds: Few Clouds
Visibility: 10 miles , 16 km
Cloud details: Few Clouds 11000 ft
2018/05/27 08:53 KDXR 270853Z AUTO 07009KT 10SM FEW110 19/16 A2996 RMK AO2 SLP141 T01940156 51012
 
KISP - Islip, New York, USA
Distance from station: E 52mi, 83km
Updated: 05/27/2018 4:56am
Clear
Clear
 Wind from ENE
Wind: ENE 15 mph , 24 km/h, Gust: 21 mph , 33 km/h
Temperature: 66°F , 19°C
Dew Point: 61°F , 16°C
Humidity: 83%
Barometer: 29.92 inHg , 1013.2 hPa
Clouds: Clear
Visibility: 10 miles , 16 km
2018/05/27 08:56 KISP 270856Z AUTO 07013G18KT 10SM CLR 19/16 A2992 RMK AO2 SLP132 T01890156 51010
KBDR - Bridgeport, Connecticut, USA
Distance from station: ENE 54mi, 87km
Updated: 05/27/2018 4:52am
Overcast
Overcast
 Wind from ENE
Wind: ENE 8 mph , 13 km/h
Temperature: 63°F , 17°C
Dew Point: 57°F , 14°C
Humidity: 83%
Barometer: 29.94 inHg , 1013.9 hPa
Clouds: Overcast
Visibility: 10 miles , 16 km
Cloud details: Overcast 12000 ft
2018/05/27 08:52 KBDR 270852Z AUTO 06007KT 10SM OVC120 17/14 A2994 RMK AO2 SLP137 T01720144 50010
 
KTTN - Trenton, New Jersey, USA
Distance from station: SW 55mi, 88km
Updated: 05/27/2018 5:12am
Thunderstorm, Overcast
Thunderstorm, Overcast
 Wind from varies
Wind: varies 5 mph , 7 km/h
Temperature: 73°F , 23°C
Dew Point: 72°F , 22°C
Humidity: 94%
Barometer: 29.86 inHg , 1011.2 hPa
Summary: Thunderstorm
Clouds: Overcast
Visibility: 7 miles , 11 km
Cloud details: Mostly cloudy 1600 ft
Mostly cloudy 2800 ft
Overcast 4800 ft
2018/05/27 09:12 KTTN 270912Z AUTO VRB04KT 7SM TS BKN016 BKN028 OVC048 23/22 A2986 RMK AO2 LTG DSNT ALQDS TSB0858 T02330217
KPOU - Poughkeepsie, New York, USA
Distance from station: N 55mi, 89km
Updated: 05/27/2018 4:53am
Partly cloudy
Partly cloudy
 Wind from E
Wind: E 6 mph , 9 km/h
Temperature: 70°F , 21°C
Dew Point: 57°F , 14°C
Humidity: 64%
Barometer: 29.93 inHg , 1013.5 hPa
Clouds: Partly cloudy
Visibility: 10 miles , 16 km
Cloud details: Partly cloudy 11000 ft
2018/05/27 08:53 KPOU 270853Z AUTO 10005KT 10SM SCT110 21/14 A2993 RMK AO2 SLP131 T02110144 53014
 
KNEL - Lakehurst Nas, New Jersey, USA
Distance from station: SSW 59mi, 95km
Updated: 05/24/2018 9:55pm
NOT Current
Clear
Clear
 Wind from calm
Wind: Calm
Temperature: 68°F , 20°C
Dew Point: 45°F , 7°C
Humidity: 43%
Barometer: 30.05 inHg , 1017.6 hPa
Clouds: Clear
Visibility: 7 miles , 11 km
2018/05/25 01:55 KNEL 250155Z COR 00000KT 7SM CLR 20/07 A3005 RMK AO2A SLPNO WND DATA ESTMD ALSTG ESTMD T01960070 $
KWRI - Wrightst/Mcguire, New Jersey, USA
Distance from station: SSW 63mi, 102km
Updated: 05/27/2018 5:13am
Light rain, Few clouds
Light rain, Few clouds
 Wind from SSW
Wind: SSW 7 mph , 11 km/h
Temperature: 72°F , 22°C
Dew Point: 72°F , 22°C
Humidity: 100%
Barometer: 29.84 inHg , 1010.5 hPa
Summary: Light rain
Clouds: Few Clouds
Visibility: 10 miles , 16 km
Cloud details: Few Clouds 13000 ft
2018/05/27 09:13 KWRI 270913Z AUTO 21006KT 10SM -RA FEW130 22/22 A2984 RMK AO2 LTG DSNT NW-N RAB13 SLP103
 
KHWV - Shirley, New York, USA
Distance from station: E 64mi, 103km
Updated: 05/27/2018 4:56am
Clear
Clear
 Wind from varies
Wind: varies 6 mph , 9 km/h, Gust: 17 mph , 28 km/h
Temperature: 64°F , 18°C
Dew Point: 61°F , 16°C
Humidity: 88%
Barometer: 29.93 inHg , 1013.5 hPa
Clouds: Clear
Visibility: 10 miles , 16 km
2018/05/27 08:56 KHWV 270856Z AUTO VRB05G15KT 10SM CLR 18/16 A2993 RMK AO2 SLP135 T01830156 51008
KMJX - Toms River, New Jersey, USA
Distance from station: S 64mi, 104km
Updated: 05/27/2018 4:56am
Overcast
Overcast
 Wind from ESE
Wind: ESE 8 mph , 13 km/h
Temperature: 73°F , 23°C
Dew Point: 68°F , 20°C
Humidity: 83%
Barometer: 29.89 inHg , 1012.2 hPa
Clouds: Overcast
Visibility: 10 miles , 16 km
Cloud details: Few Clouds 1800 ft
Mostly cloudy 5000 ft
Overcast 6000 ft
2018/05/27 08:56 KMJX 270856Z AUTO 11007KT 10SM FEW018 BKN050 OVC060 23/20 A2989 RMK AO2 LTG DSNT NW-E RAB41E54 SLP126 P0000 60000 T02280200 53003
 
KDYL - Doylestown, Pennsylvania, USA
Distance from station: SW 65mi, 104km
Updated: 05/27/2018 5:11am
Nearby thunderstorm, Mostly cloudy
Nearby thunderstorm, Mostly cloudy
 Wind from ENE
Wind: ENE 3 mph , 6 km/h
Temperature: 72°F , 22°C
Dew Point: 72°F , 22°C
Humidity: 100%
Barometer: 29.86 inHg , 1011.2 hPa
Summary: Nearby Thunderstorm
Clouds: Mostly cloudy
Visibility: 10 miles , 16 km
Cloud details: Few Clouds 3700 ft
Mostly cloudy 4500 ft
Mostly cloudy 6500 ft
2018/05/27 09:11 KDYL 270911Z AUTO 06003KT 10SM VCTS FEW037 BKN045 BKN065 22/22 A2986 RMK AO2 LTG DSNT ALQDS T02220217
KOXC - Oxford/Waterbury, Connecticut, USA
Distance from station: NE 65mi, 105km
Updated: 05/27/2018 4:51am
Mostly cloudy
Mostly cloudy
 Wind from ENE
Wind: ENE 14 mph , 22 km/h, Gust: 18 mph , 30 km/h
Temperature: 66°F , 19°C
Dew Point: 59°F , 15°C
Humidity: 78%
Barometer: 29.98 inHg , 1015.2 hPa
Clouds: Mostly cloudy
Visibility: 10 miles , 16 km
Cloud details: Mostly cloudy 11000 ft
2018/05/27 08:51 KOXC 270851Z AUTO 07012G16KT 10SM BKN110 19/15 A2998 RMK AO2 SLP157 T01890150 53013
 
KMSV - Monticello, New York, USA
Distance from station: NNW 69mi, 111km
Updated: 05/13/2018 9:55am
NOT Current
Overcast
Overcast
 Wind from SSE
Wind: SSE 9 mph , 15 km/h
Temperature: 52°F , 11°C
Dew Point: 45°F , 7°C
Humidity: 77%
Barometer: 30.15 inHg , 1021 hPa
Clouds: Overcast
Visibility: 15 miles , 24 km
Cloud details: Overcast 1000 ft
2018/05/13 13:55 KMSV 131355Z 15008KT 15SM OVC010 11/07 A3015
KHVN - New Haven/Tweed, Connecticut, USA
Distance from station: ENE 70mi, 112km
Updated: 05/27/2018 4:53am
Few Clouds
Few Clouds
 Wind from NE
Wind: NE 5 mph , 7 km/h
Temperature: 68°F , 20°C
Dew Point: 61°F , 16°C
Humidity: 78%
Barometer: 29.95 inHg , 1014.2 hPa
Clouds: Few Clouds
Visibility: 10 miles , 16 km
Cloud details: Few Clouds 12000 ft
2018/05/27 08:53 KHVN 270853Z AUTO 05004KT 10SM FEW120 20/16 A2995 RMK AO2 SLP140 T02000156 52012
 
KMPO - Mt. Pocono, Pennsylvania, USA
Distance from station: WNW 70mi, 113km
Updated: 05/27/2018 4:53am
Light rain, Mostly cloudy
Light rain, Mostly cloudy
 Wind from calm
Wind: Calm
Temperature: 63°F , 17°C
Dew Point: 61°F , 16°C
Humidity: 94%
Barometer: 29.95 inHg , 1014.2 hPa
Summary: Light rain
Clouds: Mostly cloudy
Visibility: 10 miles , 16 km
Cloud details: Few Clouds 6500 ft
Partly cloudy 8000 ft
Mostly cloudy 11000 ft
2018/05/27 08:53 KMPO 270853Z AUTO 00000KT 10SM -RA FEW065 SCT080 BKN110 17/16 A2995 RMK AO2 RAB20 SLP128 P0001 60002 T01720161 50002
KPNE - Philadelphia/Ne, Pennsylvania, USA
Distance from station: SW 72mi, 116km
Updated: 05/27/2018 5:07am
Nearby thunderstorm, Partly cloudy
Nearby thunderstorm, Partly cloudy
 Wind from WSW
Wind: WSW 6 mph , 9 km/h
Temperature: 79°F , 26°C
Dew Point: 70°F , 21°C
Humidity: 74%
Barometer: 29.87 inHg , 1011.5 hPa
Summary: Nearby Thunderstorm
Clouds: Partly cloudy
Visibility: 10 miles , 16 km
Cloud details: Few Clouds 3300 ft
Partly cloudy 4500 ft
2018/05/27 09:07 KPNE 270907Z AUTO 25005KT 10SM VCTS FEW033 SCT045 26/21 A2987 RMK AO2 LTG DSNT NW-E TSE01 T02560211
 
KABE - Allentown, Pennsylvania, USA
Distance from station: W 73mi, 117km
Updated: 05/27/2018 4:51am
Mostly cloudy
Mostly cloudy
 Wind from ENE
Wind: ENE 7 mph , 11 km/h
Temperature: 72°F , 22°C
Dew Point: 66°F , 19°C
Humidity: 83%
Barometer: 29.87 inHg , 1011.5 hPa
Clouds: Mostly cloudy
Visibility: 9 miles , 14 km
Cloud details: Few Clouds 7000 ft
Mostly cloudy 11000 ft
2018/05/27 08:51 KABE 270851Z 06006KT 9SM FEW070 BKN110 22/19 A2987 RMK AO2 LTG DSNT E RAE10 SLP111 P0000 60000 T02220189 58001
KUKT - Quakertown Arp, Pennsylvania, USA
Distance from station: WSW 74mi, 119km
Updated: 05/27/2018 5:15am
Mist, Partly cloudy
Mist, Partly cloudy
 Wind from calm
Wind: Calm
Temperature: 72°F , 22°C
Dew Point: 72°F , 22°C
Humidity: 100%
Barometer: 29.89 inHg , 1012.2 hPa
Summary: Mist
Clouds: Partly cloudy
Visibility: 5 miles , 8 km
Cloud details: Few Clouds 3800 ft
Partly cloudy 6000 ft
Partly cloudy 7500 ft
2018/05/27 09:15 KUKT 270915Z AUTO 00000KT 5SM BR FEW038 SCT060 SCT075 22/22 A2989 RMK A01
 
KVAY - Mount Holly, New Jersey, USA
Distance from station: SSW 75mi, 120km
Updated: 05/27/2018 4:54am
Clear
Clear
 Wind from calm
Wind: Calm
Temperature: 72°F , 22°C
Dew Point: 72°F , 22°C
Humidity: 100%
Barometer: 29.86 inHg , 1011.2 hPa
Clouds: Clear
Visibility: 10 miles , 16 km
2018/05/27 08:54 KVAY 270854Z AUTO 00000KT 10SM CLR 22/22 A2986 RMK AO2 LTG DSNT N RAB06E25 SLP112 P0002 60002 T02220222 55001
KXLL - Allentown Queen, Pennsylvania, USA
Distance from station: WSW 76mi, 122km
Updated: 05/27/2018 4:55am
Partly cloudy
Partly cloudy
 Wind from ENE
Wind: ENE 3 mph , 6 km/h
Temperature: 72°F , 22°C
Dew Point: 70°F , 21°C
Humidity: 94%
Barometer: 29.88 inHg , 1011.9 hPa
Clouds: Partly cloudy
Visibility: 10 miles , 16 km
Cloud details: Partly cloudy 12000 ft
2018/05/27 08:55 KXLL 270855Z AUTO 06003KT 10SM SCT120 22/21 A2988 RMK AO2 LTG DSNT SE
 
KFOK - Westhampton Beac, New York, USA
Distance from station: E 77mi, 124km
Updated: 05/27/2018 5:14am
Mostly cloudy
Mostly cloudy
 Wind from NE
Wind: NE 10 mph , 17 km/h
Temperature: 63°F , 17°C
Dew Point: 55°F , 13°C
Humidity: 77%
Barometer: 29.96 inHg , 1014.6 hPa
Clouds: Mostly cloudy
Visibility: 10 miles , 16 km
Cloud details: Mostly cloudy 1300 ft
2018/05/27 09:14 KFOK 270914Z AUTO 05009KT 10SM BKN013 17/13 A2996 RMK AO2 T01720133
KLOM - Philly Wings F, Pennsylvania, USA
Distance from station: SW 79mi, 128km
Updated: 05/27/2018 4:55am
Overcast
Overcast
 Wind from SSW
Wind: SSW 3 mph , 6 km/h
Temperature: 72°F , 22°C
Dew Point: 72°F , 22°C
Humidity: 100%
Barometer: 29.88 inHg , 1011.9 hPa
Clouds: Overcast
Visibility: 7 miles , 11 km
Cloud details: Partly cloudy 2100 ft
Mostly cloudy 2600 ft
Overcast 3300 ft
2018/05/27 08:55 KLOM 270855Z AUTO 20003KT 7SM SCT021 BKN026 OVC033 22/22 A2988 RMK AO1
 
KMMK - Meriden, Connecticut, USA
Distance from station: NE 80mi, 128km
Updated: 05/27/2018 4:53am
Overcast
Overcast
 Wind from NE
Wind: NE 9 mph , 15 km/h
Temperature: 68°F , 20°C
Dew Point: 59°F , 15°C
Humidity: 73%
Barometer: 29.97 inHg , 1014.9 hPa
Clouds: Overcast
Visibility: 10 miles , 16 km
Cloud details: Overcast 12000 ft
2018/05/27 08:53 KMMK 270853Z AUTO 04008KT 10SM OVC120 20/15 A2997 RMK AO2 SLP147 T02000150 53015
KPTW - Pottstown, Pennsylvania, USA
Distance from station: WSW 88mi, 141km
Updated: 05/27/2018 5:09am
Nearby thunderstorm, Light rain, Mist, Overcast
Nearby thunderstorm, Light rain, Mist, Overcast
 Wind from NE
Wind: NE 3 mph , 6 km/h
Temperature: 72°F , 22°C
Dew Point: 72°F , 22°C
Humidity: 100%
Barometer: 29.88 inHg , 1011.9 hPa
Summary: Nearby thunderstorm, Light rain, Mist
Clouds: Overcast
Visibility: 4 miles , 6 km
Cloud details: Mostly cloudy 2700 ft
Overcast 3300 ft
2018/05/27 09:09 KPTW 270909Z AUTO 04003KT 4SM VCTS -RA BR BKN027 OVC033 22/22 A2988 RMK AO2 LTG DSNT NE AND E P0001 T02220222
 
KSNC - Chester, Connecticut, USA
Distance from station: ENE 90mi, 146km
Updated: 05/27/2018 5:15am
Partly cloudy
Partly cloudy
 Wind from ENE
Wind: ENE 7 mph , 11 km/h, Gust: 17 mph , 28 km/h
Temperature: 66°F , 19°C
Dew Point: 61°F , 16°C
Humidity: 83%
Barometer: 29.97 inHg , 1014.9 hPa
Clouds: Partly cloudy
Visibility: 10 miles , 16 km
Cloud details: Partly cloudy 12000 ft
2018/05/27 09:15 KSNC 270915Z AUTO 06006G15KT 10SM SCT120 19/16 A2997 RMK AO2
KPHL - Philadelphia, Pennsylvania, USA
Distance from station: SW 91mi, 146km
Updated: 05/27/2018 5:16am
Mostly cloudy
Mostly cloudy
 Wind from SW
Wind: SW 7 mph , 11 km/h
Temperature: 73°F , 23°C
Dew Point: 70°F , 21°C
Humidity: 89%
Barometer: 29.86 inHg , 1011.2 hPa
Clouds: Mostly cloudy
Visibility: 10 miles , 16 km
Cloud details: Partly cloudy 2500 ft
Partly cloudy 9000 ft
Mostly cloudy 14000 ft
Mostly cloudy 25000 ft
2018/05/27 09:16 KPHL 270916Z 22006KT 10SM SCT025 SCT090 BKN140 BKN250 23/21 A2986 RMK AO2 LTG DSNT N AND NE TSB0857E14 OCNL LTGIC DSNT NE CB DSNT NE MOV NE T02330206 $
 
KAVP - Avoca/Wilkes B., Pennsylvania, USA
Distance from station: WNW 91mi, 147km
Updated: 05/27/2018 4:54am
Rain, Mist, Overcast
Rain, Mist, Overcast
 Wind from W
Wind: W 7 mph , 11 km/h, Gust: 23 mph , 37 km/h
Temperature: 66°F , 19°C
Dew Point: 64°F , 18°C
Humidity: 94%
Barometer: 29.95 inHg , 1014.2 hPa
Summary: Rain, Mist
Clouds: Overcast
Visibility: 6 miles , 10 km
Cloud details: Few Clouds 1000 ft
Mostly cloudy 5500 ft
Overcast 7000 ft
2018/05/27 08:54 KAVP 270854Z 28006G20KT 6SM RA BR FEW010 BKN055 OVC070 19/18 A2995 RMK AO2 RAB09E32B48 SLP131 P0000 60006 T01940178 53010
KHFD - Hartford/Brainar, Connecticut, USA
Distance from station: NE 96mi, 155km
Updated: 05/27/2018 4:53am
Overcast
Overcast
 Wind from NE
Wind: NE 10 mph , 17 km/h
Temperature: 68°F , 20°C
Dew Point: 61°F , 16°C
Humidity: 78%
Barometer: 29.98 inHg , 1015.2 hPa
Clouds: Overcast
Visibility: 10 miles , 16 km
Cloud details: Overcast 2300 ft
2018/05/27 08:53 KHFD 270853Z AUTO 05009KT 10SM OVC023 20/16 A2998 RMK AO2 SLP152 T02000156 52017
 
KHTO - East Hampton, New York, USA
Distance from station: E 96mi, 155km
Updated: 05/27/2018 5:15am
Overcast
Overcast
 Wind from ENE
Wind: ENE 16 mph , 26 km/h, Gust: 23 mph , 37 km/h
Temperature: 59°F , 15°C
Dew Point: 55°F , 13°C
Humidity: 88%
Barometer: 29.96 inHg , 1014.6 hPa
Clouds: Overcast
Visibility: 10 miles , 16 km
Cloud details: Overcast 900 ft
2018/05/27 09:15 KHTO 270915Z AUTO 07014G20KT 10SM OVC009 15/13 A2996 RMK AO2 T01520132
KACY - Atlantic City, New Jersey, USA
Distance from station: SSW 99mi, 160km
Updated: 05/27/2018 4:54am
Few Clouds
Few Clouds
 Wind from SW
Wind: SW 7 mph , 11 km/h
Temperature: 75°F , 24°C
Dew Point: 73°F , 23°C
Humidity: 94%
Barometer: 29.88 inHg , 1011.9 hPa
Clouds: Few Clouds
Visibility: 10 miles , 16 km
Cloud details: Few Clouds 11000 ft
2018/05/27 08:54 KACY 270854Z 22006KT 10SM FEW110 24/23 A2988 RMK AO2 SLP117 T02440228 55002